El Cerrito, CA (94530)

7:58 PM PST on December 02, 2016 (GMT -0800)
El Cerrito / Richmond Heights | | Change Station

Elev 300 ft 37.94 °N, 122.31 °W | Updated 4 minutes ago

Clear
Clear
54.1 °F
Feels Like 54.1 °F
N
0.0
Wind Variable Wind from ENE
Gusts 5.0 mph

Today
High -- | Low -- °F
--% Chance of Precip.
Yesterday
High -- | Low -- °F
Precip. -- in
Pressure 30.17 in
Visibility 10.0 miles
Clouds Clear
Dew Point 36 °F
Humidity 50%
Rainfall 0.00 in
Snow Depth Not available.
7:07 AM 4:49 PM
Waxing Crescent, 12% visible
METAR KCCR 030353Z 13005KT 10SM CLR 09/M01 A3021 RMK AO2 SLP214 T00941011
Pressure 30.17 in
Visibility 10.0 miles
Clouds Clear
Dew Point 36 °F
Humidity 50%
Rainfall 0.00 in
Snow Depth Not available.
7:07 AM 4:49 PM
Waxing Crescent, 12% visible
METAR KCCR 030353Z 13005KT 10SM CLR 09/M01 A3021 RMK AO2 SLP214 T00941011

10-Day Weather Forecast

Almanac

Astronomy

Dec. 02, 2016 Rise Set
Actual Time
Civil Twilight
Nautical Twilight
Astronomical Twilight
Moon
Length of Visible Light
Length of Day
Tomorrow will be .
, % of the Moon is Illuminated

Today's Extremes

State Highs State Lows

Community

WunderPhotos

Upload Photos

1,955,405 photos uploaded!

WunderBlog® & News

Nearby

Air Quality

  Air Quality AQ Index Pollutant
Not available.

Snow Depth

Station Depth Elevation

Earthquake Activity

City Distance Mag. Time & Date
Minimum magnitude displayed is 2.5.

Coastal Water Temperatures

Place Temperature

Stations

Nearby Weather Stations

Station Location Temp. Windchill Dew Point Humidity Wind Precip. Elev Updated Type
                   

Watches & Warnings

There are currently no watches in effect.